Kos, Greece

3:03 PM EET on December 26, 2014 (GMT +0200)
Ippokratis | Change Station
CLOSE
Current Station
Airport
Location: Kos,
Elevation: 423 ft
Nearby Weather Stations

Elev 423 ft 36.80 °N, 27.09 °E | Updated 13 minutes ago

Mostly Cloudy
Mostly Cloudy
57 °F
Feels Like 57 °F
N
7
Wind Variable Wind from South

Today
High -- | Low -- °F
--% Chance of Precip.
Yesterday
High -- | Low -- °F
Precip. -- in
7:22 AM 5:01 PM
Waxing Crescent, 25% visible
Pressure 29.98 in
Visibility 6.2 miles
Clouds Few 1200 ft
Scattered Clouds 1800 ft
Mostly Cloudy 3000 ft
Dew Point 52 °F
Humidity 82%
Rainfall 0.00 in
Snow Depth Not available.
UV 1 out of 12
Pollen Not available.
Air Quality Not available.
Flu Activity Not available.
METAR LGKO 261250Z 17006KT 9999 FEW012 SCT018TCU BKN030 14/11 Q1015 RERA

More Conditions Fewer Conditions

Pressure 29.98 in
Visibility 6.2 miles
Clouds Few 1200 ft
Scattered Clouds 1800 ft
Mostly Cloudy 3000 ft
Dew Point 52 °F
Humidity 82%
Rainfall 0.00 in
Snow Depth Not available.
UV 1 out of 12
Pollen Not available.
Air Quality Not available.
Flu Activity Not available.
METAR LGKO 261250Z 17006KT 9999 FEW012 SCT018TCU BKN030 14/11 Q1015 RERA

More Conditions Fewer Conditions

10-Day Weather Forecast

Almanac

Astronomy

Dec. 26, 2014 Rise Set
Actual Time
Civil Twilight
Nautical Twilight
Astronomical Twilight
Moon
Length of Visible Light
Length of Day
Tomorrow will be .
, % of the Moon is Illuminated

Today's Extremes

Country Highs Country Lows

Community

WunderPhotos

Upload Photos

1,780,589 photos uploaded!

WunderBlogs® & News

Nearby

Air Quality

  Air Quality AQ Index Pollutant
Not available.

Snow Depth

Station Depth Elevation

Earthquake Activity

City Distance Mag. Time & Date
Minimum magnitude displayed is 2.5.

Coastal Water Temperatures

Place Temperature

Nearby Weather Stations